Acampo, California
Current Conditions -  °F | °C
As of 4:55 PM on Saturday 22 Nov 2014 (Local Time) from KSCK Reporting Station
Haze Haze  
Wind Chill: 57°   Ceiling: Unl
Heat Index: 57°   Visibility: 5mi
Dew Point: 54°   Wind: 7mph
Humidity: 89%   Direction: 110°ESE
Pressure: 30.13"   Gusts: NA
Location:  38.17°N, 121.28°W
Report Text: KSCK 230055Z 11006KT 5SM BR CLR 14/12 A3013 RMK AO2 SLP201 T01390122
Loading
Personal Weather Stations






























Interactive Weather Map New forecast layout! Learn more

10-Day Weather Forecast

Advertisements
Track Severe Weather on mobile